sensor_id;sensor_type;location;lat;lon;timestamp;P1;durP1;ratioP1;P2;durP2;ratioP2
19879;SDS011;10102;50.828;4.416;2022-09-09T00:04:45;2.22;;;1.60;;
19879;SDS011;10102;50.828;4.416;2022-09-09T00:07:21;5.32;;;1.80;;
19879;SDS011;10102;50.828;4.416;2022-09-09T00:15:07;5.57;;;1.58;;
19879;SDS011;10102;50.828;4.416;2022-09-09T00:17:52;6.28;;;1.52;;
19879;SDS011;10102;50.828;4.416;2022-09-09T00:20:33;2.88;;;1.50;;
19879;SDS011;10102;50.828;4.416;2022-09-09T00:23:12;4.88;;;1.35;;
19879;SDS011;10102;50.828;4.416;2022-09-09T00:28:23;8.88;;;2.00;;
19879;SDS011;10102;50.828;4.416;2022-09-09T00:30:51;3.42;;;1.40;;
19879;SDS011;10102;50.828;4.416;2022-09-09T00:33:19;4.85;;;1.58;;
19879;SDS011;10102;50.828;4.416;2022-09-09T00:35:49;7.22;;;1.50;;
19879;SDS011;10102;50.828;4.416;2022-09-09T00:38:19;5.85;;;1.63;;
19879;SDS011;10102;50.828;4.416;2022-09-09T00:40:52;6.32;;;1.90;;
19879;SDS011;10102;50.828;4.416;2022-09-09T00:43:31;7.32;;;1.55;;
19879;SDS011;10102;50.828;4.416;2022-09-09T00:49:13;4.60;;;1.50;;
19879;SDS011;10102;50.828;4.416;2022-09-09T00:52:02;9.77;;;1.55;;
19879;SDS011;10102;50.828;4.416;2022-09-09T00:57:31;5.53;;;1.27;;
19879;SDS011;10102;50.828;4.416;2022-09-09T01:11:04;7.85;;;1.45;;
19879;SDS011;10102;50.828;4.416;2022-09-09T01:13:33;7.50;;;1.33;;
19879;SDS011;10102;50.828;4.416;2022-09-09T01:16:03;6.28;;;1.73;;
19879;SDS011;10102;50.828;4.416;2022-09-09T01:18:52;9.27;;;1.67;;
19879;SDS011;10102;50.828;4.416;2022-09-09T01:26:44;3.97;;;1.15;;
19879;SDS011;10102;50.828;4.416;2022-09-09T01:29:15;5.35;;;1.75;;
19879;SDS011;10102;50.828;4.416;2022-09-09T01:31:51;5.75;;;1.48;;
19879;SDS011;10102;50.828;4.416;2022-09-09T01:34:20;7.00;;;1.52;;
19879;SDS011;10102;50.828;4.416;2022-09-09T01:36:49;5.93;;;1.52;;
19879;SDS011;10102;50.828;4.416;2022-09-09T01:39:18;8.70;;;2.13;;
19879;SDS011;10102;50.828;4.416;2022-09-09T01:41:44;6.13;;;1.58;;
19879;SDS011;10102;50.828;4.416;2022-09-09T01:44:10;7.93;;;1.55;;
19879;SDS011;10102;50.828;4.416;2022-09-09T01:46:36;7.00;;;2.08;;
19879;SDS011;10102;50.828;4.416;2022-09-09T01:49:03;4.18;;;1.70;;
19879;SDS011;10102;50.828;4.416;2022-09-09T01:51:32;18.33;;;2.53;;
19879;SDS011;10102;50.828;4.416;2022-09-09T01:53:58;8.90;;;2.00;;
19879;SDS011;10102;50.828;4.416;2022-09-09T01:56:42;6.85;;;1.92;;
19879;SDS011;10102;50.828;4.416;2022-09-09T02:07:00;4.63;;;1.65;;
19879;SDS011;10102;50.828;4.416;2022-09-09T02:09:26;12.45;;;2.15;;
19879;SDS011;10102;50.828;4.416;2022-09-09T02:12:28;6.30;;;1.88;;
19879;SDS011;10102;50.828;4.416;2022-09-09T02:14:50;9.68;;;2.22;;
19879;SDS011;10102;50.828;4.416;2022-09-09T02:17:22;9.90;;;2.03;;
19879;SDS011;10102;50.828;4.416;2022-09-09T02:22:53;5.65;;;1.70;;
19879;SDS011;10102;50.828;4.416;2022-09-09T02:25:22;9.30;;;2.40;;
19879;SDS011;10102;50.828;4.416;2022-09-09T02:27:51;8.15;;;1.88;;
19879;SDS011;10102;50.828;4.416;2022-09-09T02:30:17;6.50;;;2.10;;
19879;SDS011;10102;50.828;4.416;2022-09-09T02:32:45;8.88;;;2.30;;
19879;SDS011;10102;50.828;4.416;2022-09-09T02:35:15;7.43;;;2.35;;
19879;SDS011;10102;50.828;4.416;2022-09-09T02:37:44;10.75;;;2.58;;
19879;SDS011;10102;50.828;4.416;2022-09-09T02:40:13;12.77;;;2.83;;
19879;SDS011;10102;50.828;4.416;2022-09-09T02:42:43;4.97;;;1.75;;
19879;SDS011;10102;50.828;4.416;2022-09-09T02:45:12;8.75;;;2.10;;
19879;SDS011;10102;50.828;4.416;2022-09-09T02:47:57;14.00;;;2.30;;
19879;SDS011;10102;50.828;4.416;2022-09-09T02:50:34;14.25;;;2.17;;
19879;SDS011;10102;50.828;4.416;2022-09-09T02:55:57;9.73;;;2.08;;
19879;SDS011;10102;50.828;4.416;2022-09-09T02:58:29;8.98;;;2.50;;
19879;SDS011;10102;50.828;4.416;2022-09-09T03:00:55;10.82;;;2.28;;
19879;SDS011;10102;50.828;4.416;2022-09-09T03:03:23;10.00;;;2.47;;
19879;SDS011;10102;50.828;4.416;2022-09-09T03:05:49;12.13;;;2.42;;
19879;SDS011;10102;50.828;4.416;2022-09-09T03:08:15;14.32;;;2.38;;
19879;SDS011;10102;50.828;4.416;2022-09-09T03:10:41;14.77;;;2.60;;
19879;SDS011;10102;50.828;4.416;2022-09-09T03:13:06;12.15;;;2.47;;
19879;SDS011;10102;50.828;4.416;2022-09-09T03:15:33;13.20;;;2.65;;
19879;SDS011;10102;50.828;4.416;2022-09-09T03:17:59;9.55;;;2.35;;
19879;SDS011;10102;50.828;4.416;2022-09-09T03:20:26;12.98;;;2.00;;
19879;SDS011;10102;50.828;4.416;2022-09-09T03:22:53;14.23;;;2.15;;
19879;SDS011;10102;50.828;4.416;2022-09-09T03:25:19;12.27;;;3.33;;
19879;SDS011;10102;50.828;4.416;2022-09-09T03:27:48;12.85;;;2.70;;
19879;SDS011;10102;50.828;4.416;2022-09-09T03:30:14;9.75;;;2.75;;
19879;SDS011;10102;50.828;4.416;2022-09-09T03:32:40;13.70;;;2.38;;
19879;SDS011;10102;50.828;4.416;2022-09-09T03:35:06;9.27;;;1.85;;
19879;SDS011;10102;50.828;4.416;2022-09-09T03:37:33;11.75;;;2.20;;
19879;SDS011;10102;50.828;4.416;2022-09-09T03:39:58;11.68;;;2.38;;
19879;SDS011;10102;50.828;4.416;2022-09-09T03:42:24;15.40;;;2.72;;
19879;SDS011;10102;50.828;4.416;2022-09-09T03:44:50;15.07;;;2.85;;
19879;SDS011;10102;50.828;4.416;2022-09-09T03:47:19;10.82;;;2.05;;
19879;SDS011;10102;50.828;4.416;2022-09-09T03:49:47;12.68;;;2.08;;
19879;SDS011;10102;50.828;4.416;2022-09-09T03:52:13;7.00;;;2.17;;
19879;SDS011;10102;50.828;4.416;2022-09-09T03:54:39;14.85;;;2.63;;
19879;SDS011;10102;50.828;4.416;2022-09-09T03:57:06;9.55;;;1.88;;
19879;SDS011;10102;50.828;4.416;2022-09-09T03:59:32;11.23;;;2.40;;
19879;SDS011;10102;50.828;4.416;2022-09-09T04:01:57;17.50;;;2.55;;
19879;SDS011;10102;50.828;4.416;2022-09-09T04:04:24;10.07;;;2.40;;
19879;SDS011;10102;50.828;4.416;2022-09-09T04:06:51;14.27;;;2.53;;
19879;SDS011;10102;50.828;4.416;2022-09-09T04:09:17;17.23;;;2.05;;
19879;SDS011;10102;50.828;4.416;2022-09-09T04:11:43;8.50;;;2.65;;
19879;SDS011;10102;50.828;4.416;2022-09-09T04:14:08;13.10;;;1.90;;
19879;SDS011;10102;50.828;4.416;2022-09-09T04:16:34;10.70;;;1.90;;
19879;SDS011;10102;50.828;4.416;2022-09-09T04:19:03;14.35;;;2.40;;
19879;SDS011;10102;50.828;4.416;2022-09-09T04:21:31;12.27;;;2.15;;
19879;SDS011;10102;50.828;4.416;2022-09-09T04:23:57;15.77;;;2.38;;
19879;SDS011;10102;50.828;4.416;2022-09-09T04:26:23;13.30;;;2.30;;
19879;SDS011;10102;50.828;4.416;2022-09-09T04:28:49;7.72;;;2.63;;
19879;SDS011;10102;50.828;4.416;2022-09-09T04:31:20;19.27;;;2.58;;
19879;SDS011;10102;50.828;4.416;2022-09-09T04:33:48;14.13;;;2.40;;
19879;SDS011;10102;50.828;4.416;2022-09-09T04:36:14;12.90;;;2.53;;
19879;SDS011;10102;50.828;4.416;2022-09-09T04:38:40;13.15;;;2.50;;
19879;SDS011;10102;50.828;4.416;2022-09-09T04:41:06;10.40;;;2.45;;
19879;SDS011;10102;50.828;4.416;2022-09-09T04:43:33;15.55;;;2.40;;
19879;SDS011;10102;50.828;4.416;2022-09-09T04:45:59;9.25;;;3.00;;
19879;SDS011;10102;50.828;4.416;2022-09-09T04:48:25;14.50;;;2.70;;
19879;SDS011;10102;50.828;4.416;2022-09-09T04:50:55;15.32;;;2.45;;
19879;SDS011;10102;50.828;4.416;2022-09-09T04:53:22;9.35;;;2.38;;
19879;SDS011;10102;50.828;4.416;2022-09-09T04:55:48;13.40;;;3.20;;
19879;SDS011;10102;50.828;4.416;2022-09-09T04:58:14;11.80;;;2.67;;
19879;SDS011;10102;50.828;4.416;2022-09-09T05:00:40;14.45;;;3.17;;
19879;SDS011;10102;50.828;4.416;2022-09-09T05:03:07;10.93;;;2.78;;
19879;SDS011;10102;50.828;4.416;2022-09-09T05:05:36;10.68;;;3.05;;
19879;SDS011;10102;50.828;4.416;2022-09-09T05:08:03;13.60;;;3.08;;
19879;SDS011;10102;50.828;4.416;2022-09-09T05:10:30;8.68;;;2.80;;
19879;SDS011;10102;50.828;4.416;2022-09-09T05:12:56;14.38;;;3.00;;
19879;SDS011;10102;50.828;4.416;2022-09-09T05:15:23;13.98;;;3.22;;
19879;SDS011;10102;50.828;4.416;2022-09-09T05:17:50;8.38;;;3.05;;
19879;SDS011;10102;50.828;4.416;2022-09-09T05:20:17;17.35;;;2.78;;
19879;SDS011;10102;50.828;4.416;2022-09-09T05:22:43;9.57;;;3.17;;
19879;SDS011;10102;50.828;4.416;2022-09-09T05:25:09;10.90;;;2.78;;
19879;SDS011;10102;50.828;4.416;2022-09-09T05:27:35;9.07;;;2.55;;
19879;SDS011;10102;50.828;4.416;2022-09-09T05:30:01;10.07;;;2.25;;
19879;SDS011;10102;50.828;4.416;2022-09-09T05:32:27;13.13;;;2.85;;
19879;SDS011;10102;50.828;4.416;2022-09-09T05:34:57;11.43;;;3.42;;
19879;SDS011;10102;50.828;4.416;2022-09-09T05:37:24;12.73;;;3.50;;
19879;SDS011;10102;50.828;4.416;2022-09-09T05:39:49;14.93;;;2.90;;
19879;SDS011;10102;50.828;4.416;2022-09-09T05:42:15;10.48;;;2.70;;
19879;SDS011;10102;50.828;4.416;2022-09-09T05:44:41;9.63;;;2.60;;
19879;SDS011;10102;50.828;4.416;2022-09-09T05:47:08;13.05;;;2.90;;
19879;SDS011;10102;50.828;4.416;2022-09-09T05:49:34;14.23;;;3.10;;
19879;SDS011;10102;50.828;4.416;2022-09-09T05:52:00;8.38;;;2.85;;
19879;SDS011;10102;50.828;4.416;2022-09-09T05:54:26;11.63;;;3.17;;
19879;SDS011;10102;50.828;4.416;2022-09-09T05:56:52;12.98;;;2.47;;
19879;SDS011;10102;50.828;4.416;2022-09-09T05:59:18;10.75;;;2.58;;
19879;SDS011;10102;50.828;4.416;2022-09-09T06:01:45;8.13;;;2.80;;
19879;SDS011;10102;50.828;4.416;2022-09-09T06:04:11;7.45;;;2.08;;
19879;SDS011;10102;50.828;4.416;2022-09-09T06:06:38;12.57;;;2.83;;
19879;SDS011;10102;50.828;4.416;2022-09-09T06:09:07;7.25;;;2.22;;
19879;SDS011;10102;50.828;4.416;2022-09-09T06:11:37;9.50;;;2.60;;
19879;SDS011;10102;50.828;4.416;2022-09-09T06:14:04;10.38;;;2.30;;
19879;SDS011;10102;50.828;4.416;2022-09-09T06:16:31;12.30;;;2.70;;
19879;SDS011;10102;50.828;4.416;2022-09-09T06:19:00;13.30;;;3.00;;
19879;SDS011;10102;50.828;4.416;2022-09-09T06:21:33;15.95;;;3.13;;
19879;SDS011;10102;50.828;4.416;2022-09-09T06:24:04;8.82;;;2.60;;
19879;SDS011;10102;50.828;4.416;2022-09-09T06:26:33;14.45;;;3.05;;
19879;SDS011;10102;50.828;4.416;2022-09-09T06:29:00;16.85;;;3.25;;
19879;SDS011;10102;50.828;4.416;2022-09-09T06:31:29;12.65;;;3.53;;
19879;SDS011;10102;50.828;4.416;2022-09-09T06:33:57;14.95;;;2.55;;
19879;SDS011;10102;50.828;4.416;2022-09-09T06:36:27;12.57;;;2.67;;
19879;SDS011;10102;50.828;4.416;2022-09-09T06:38:54;8.93;;;2.20;;
19879;SDS011;10102;50.828;4.416;2022-09-09T06:41:22;14.10;;;2.25;;
19879;SDS011;10102;50.828;4.416;2022-09-09T06:43:52;10.52;;;2.38;;
19879;SDS011;10102;50.828;4.416;2022-09-09T06:46:22;17.55;;;2.72;;
19879;SDS011;10102;50.828;4.416;2022-09-09T06:48:53;9.80;;;2.22;;
19879;SDS011;10102;50.828;4.416;2022-09-09T06:51:21;12.75;;;2.70;;
19879;SDS011;10102;50.828;4.416;2022-09-09T06:53:49;12.32;;;2.20;;
19879;SDS011;10102;50.828;4.416;2022-09-09T06:58:42;13.82;;;2.28;;
19879;SDS011;10102;50.828;4.416;2022-09-09T07:01:10;8.40;;;2.05;;
19879;SDS011;10102;50.828;4.416;2022-09-09T07:03:37;8.20;;;2.15;;
19879;SDS011;10102;50.828;4.416;2022-09-09T07:06:08;8.80;;;2.05;;
19879;SDS011;10102;50.828;4.416;2022-09-09T07:08:40;13.18;;;2.55;;
19879;SDS011;10102;50.828;4.416;2022-09-09T07:11:07;14.95;;;2.55;;
19879;SDS011;10102;50.828;4.416;2022-09-09T07:13:35;11.82;;;2.22;;
19879;SDS011;10102;50.828;4.416;2022-09-09T07:16:07;8.15;;;1.90;;
19879;SDS011;10102;50.828;4.416;2022-09-09T07:18:34;10.38;;;2.55;;
19879;SDS011;10102;50.828;4.416;2022-09-09T07:21:01;10.18;;;2.22;;
19879;SDS011;10102;50.828;4.416;2022-09-09T07:23:29;9.80;;;2.00;;
19879;SDS011;10102;50.828;4.416;2022-09-09T07:25:56;8.50;;;2.05;;
19879;SDS011;10102;50.828;4.416;2022-09-09T07:28:23;12.25;;;2.53;;
19879;SDS011;10102;50.828;4.416;2022-09-09T07:30:59;10.48;;;2.22;;
19879;SDS011;10102;50.828;4.416;2022-09-09T07:33:28;14.63;;;2.38;;
19879;SDS011;10102;50.828;4.416;2022-09-09T07:36:04;13.80;;;2.42;;
19879;SDS011;10102;50.828;4.416;2022-09-09T07:38:33;11.48;;;2.78;;
19879;SDS011;10102;50.828;4.416;2022-09-09T07:41:06;18.92;;;3.38;;
19879;SDS011;10102;50.828;4.416;2022-09-09T07:43:37;10.98;;;2.88;;
19879;SDS011;10102;50.828;4.416;2022-09-09T07:46:03;16.15;;;2.90;;
19879;SDS011;10102;50.828;4.416;2022-09-09T07:48:31;6.72;;;2.72;;
19879;SDS011;10102;50.828;4.416;2022-09-09T07:51:31;11.45;;;2.60;;
19879;SDS011;10102;50.828;4.416;2022-09-09T07:53:55;9.48;;;2.47;;
19879;SDS011;10102;50.828;4.416;2022-09-09T07:56:27;14.27;;;3.33;;
19879;SDS011;10102;50.828;4.416;2022-09-09T07:58:54;9.48;;;2.80;;
19879;SDS011;10102;50.828;4.416;2022-09-09T08:01:30;13.80;;;3.55;;
19879;SDS011;10102;50.828;4.416;2022-09-09T08:04:02;22.70;;;3.58;;
19879;SDS011;10102;50.828;4.416;2022-09-09T08:06:32;12.00;;;2.95;;
19879;SDS011;10102;50.828;4.416;2022-09-09T08:09:01;14.05;;;3.28;;
19879;SDS011;10102;50.828;4.416;2022-09-09T08:11:28;13.95;;;3.53;;
19879;SDS011;10102;50.828;4.416;2022-09-09T08:13:55;7.65;;;3.45;;
19879;SDS011;10102;50.828;4.416;2022-09-09T08:16:22;9.38;;;3.47;;
19879;SDS011;10102;50.828;4.416;2022-09-09T08:18:53;16.83;;;2.30;;
19879;SDS011;10102;50.828;4.416;2022-09-09T08:21:20;10.63;;;2.40;;
19879;SDS011;10102;50.828;4.416;2022-09-09T08:23:53;10.57;;;2.50;;
19879;SDS011;10102;50.828;4.416;2022-09-09T08:26:27;10.65;;;2.75;;
19879;SDS011;10102;50.828;4.416;2022-09-09T08:29:02;7.70;;;2.30;;
19879;SDS011;10102;50.828;4.416;2022-09-09T08:31:30;4.80;;;2.05;;
19879;SDS011;10102;50.828;4.416;2022-09-09T08:33:58;9.27;;;2.60;;
19879;SDS011;10102;50.828;4.416;2022-09-09T08:36:25;10.13;;;2.53;;
19879;SDS011;10102;50.828;4.416;2022-09-09T08:38:54;11.63;;;2.65;;
19879;SDS011;10102;50.828;4.416;2022-09-09T08:41:28;10.27;;;2.70;;
19879;SDS011;10102;50.828;4.416;2022-09-09T08:50:43;9.00;;;2.13;;
19879;SDS011;10102;50.828;4.416;2022-09-09T08:55:57;9.35;;;2.25;;
19879;SDS011;10102;50.828;4.416;2022-09-09T08:58:20;6.75;;;2.05;;
19879;SDS011;10102;50.828;4.416;2022-09-09T09:03:24;7.13;;;2.20;;
19879;SDS011;10102;50.828;4.416;2022-09-09T09:11:13;11.18;;;2.53;;
19879;SDS011;10102;50.828;4.416;2022-09-09T09:16:22;10.10;;;2.35;;
19879;SDS011;10102;50.828;4.416;2022-09-09T09:18:49;7.90;;;2.30;;
19879;SDS011;10102;50.828;4.416;2022-09-09T09:23:59;7.10;;;2.15;;
19879;SDS011;10102;50.828;4.416;2022-09-09T09:26:33;11.80;;;2.33;;
19879;SDS011;10102;50.828;4.416;2022-09-09T09:29:12;9.20;;;2.60;;
19879;SDS011;10102;50.828;4.416;2022-09-09T09:32:02;9.20;;;2.35;;
19879;SDS011;10102;50.828;4.416;2022-09-09T09:34:28;14.60;;;3.10;;
19879;SDS011;10102;50.828;4.416;2022-09-09T09:39:24;10.40;;;2.45;;
19879;SDS011;10102;50.828;4.416;2022-09-09T09:41:51;9.82;;;2.40;;
19879;SDS011;10102;50.828;4.416;2022-09-09T09:44:25;9.05;;;2.25;;
19879;SDS011;10102;50.828;4.416;2022-09-09T09:46:51;12.68;;;3.03;;
19879;SDS011;10102;50.828;4.416;2022-09-09T09:49:17;12.55;;;2.63;;
19879;SDS011;10102;50.828;4.416;2022-09-09T09:51:42;8.57;;;2.35;;
19879;SDS011;10102;50.828;4.416;2022-09-09T09:54:22;7.22;;;2.38;;
19879;SDS011;10102;50.828;4.416;2022-09-09T09:56:54;8.35;;;2.33;;
19879;SDS011;10102;50.828;4.416;2022-09-09T09:59:22;6.80;;;1.75;;
19879;SDS011;10102;50.828;4.416;2022-09-09T10:02:05;10.05;;;2.42;;
19879;SDS011;10102;50.828;4.416;2022-09-09T10:04:44;13.70;;;2.72;;
19879;SDS011;10102;50.828;4.416;2022-09-09T10:07:11;10.75;;;2.30;;
19879;SDS011;10102;50.828;4.416;2022-09-09T10:09:42;9.90;;;2.72;;
19879;SDS011;10102;50.828;4.416;2022-09-09T10:12:19;10.18;;;2.63;;
19879;SDS011;10102;50.828;4.416;2022-09-09T10:14:59;8.05;;;2.05;;
19879;SDS011;10102;50.828;4.416;2022-09-09T10:20:54;11.88;;;2.78;;
19879;SDS011;10102;50.828;4.416;2022-09-09T10:27:18;6.95;;;2.65;;
19879;SDS011;10102;50.828;4.416;2022-09-09T10:37:45;5.55;;;2.30;;
19879;SDS011;10102;50.828;4.416;2022-09-09T10:51:33;10.25;;;2.58;;
19879;SDS011;10102;50.828;4.416;2022-09-09T10:57:03;13.40;;;2.13;;
19879;SDS011;10102;50.828;4.416;2022-09-09T10:59:43;9.32;;;2.10;;
19879;SDS011;10102;50.828;4.416;2022-09-09T11:02:16;6.68;;;2.13;;
19879;SDS011;10102;50.828;4.416;2022-09-09T11:04:53;7.13;;;2.00;;
19879;SDS011;10102;50.828;4.416;2022-09-09T11:07:28;7.38;;;2.05;;
19879;SDS011;10102;50.828;4.416;2022-09-09T11:13:14;5.35;;;1.42;;
19879;SDS011;10102;50.828;4.416;2022-09-09T11:15:49;4.05;;;1.67;;
19879;SDS011;10102;50.828;4.416;2022-09-09T11:18:20;6.78;;;1.88;;
19879;SDS011;10102;50.828;4.416;2022-09-09T11:20:50;4.20;;;1.52;;
19879;SDS011;10102;50.828;4.416;2022-09-09T11:23:27;7.80;;;1.63;;
19879;SDS011;10102;50.828;4.416;2022-09-09T11:26:06;10.85;;;2.05;;
19879;SDS011;10102;50.828;4.416;2022-09-09T11:31:59;6.35;;;1.55;;
19879;SDS011;10102;50.828;4.416;2022-09-09T11:37:13;5.80;;;1.92;;
19879;SDS011;10102;50.828;4.416;2022-09-09T11:42:40;7.80;;;1.73;;
19879;SDS011;10102;50.828;4.416;2022-09-09T11:45:25;9.88;;;1.75;;
19879;SDS011;10102;50.828;4.416;2022-09-09T11:47:55;6.03;;;1.73;;
19879;SDS011;10102;50.828;4.416;2022-09-09T11:52:48;7.57;;;1.30;;
19879;SDS011;10102;50.828;4.416;2022-09-09T11:55:26;3.70;;;1.55;;
19879;SDS011;10102;50.828;4.416;2022-09-09T11:58:01;6.80;;;2.00;;
19879;SDS011;10102;50.828;4.416;2022-09-09T12:00:39;6.40;;;1.67;;
19879;SDS011;10102;50.828;4.416;2022-09-09T12:03:31;6.68;;;1.65;;
19879;SDS011;10102;50.828;4.416;2022-09-09T12:05:56;3.08;;;1.40;;
19879;SDS011;10102;50.828;4.416;2022-09-09T12:08:27;5.57;;;1.67;;
19879;SDS011;10102;50.828;4.416;2022-09-09T12:10:57;5.03;;;1.65;;
19879;SDS011;10102;50.828;4.416;2022-09-09T12:13:28;7.25;;;1.75;;
19879;SDS011;10102;50.828;4.416;2022-09-09T12:16:00;7.07;;;1.98;;
19879;SDS011;10102;50.828;4.416;2022-09-09T12:18:38;8.70;;;1.90;;
19879;SDS011;10102;50.828;4.416;2022-09-09T12:21:21;7.45;;;1.77;;
19879;SDS011;10102;50.828;4.416;2022-09-09T12:23:55;6.22;;;1.67;;
19879;SDS011;10102;50.828;4.416;2022-09-09T12:26:27;6.63;;;1.80;;
19879;SDS011;10102;50.828;4.416;2022-09-09T12:34:40;4.05;;;1.40;;
19879;SDS011;10102;50.828;4.416;2022-09-09T12:37:24;4.65;;;1.55;;
19879;SDS011;10102;50.828;4.416;2022-09-09T12:39:56;5.03;;;1.40;;
19879;SDS011;10102;50.828;4.416;2022-09-09T12:42:24;4.32;;;1.63;;
19879;SDS011;10102;50.828;4.416;2022-09-09T12:44:52;7.25;;;1.50;;
19879;SDS011;10102;50.828;4.416;2022-09-09T12:47:21;3.33;;;1.40;;
19879;SDS011;10102;50.828;4.416;2022-09-09T12:50:03;6.43;;;1.23;;
19879;SDS011;10102;50.828;4.416;2022-09-09T12:52:31;3.70;;;1.38;;
19879;SDS011;10102;50.828;4.416;2022-09-09T12:55:00;5.05;;;1.30;;
19879;SDS011;10102;50.828;4.416;2022-09-09T12:57:31;7.75;;;1.60;;
19879;SDS011;10102;50.828;4.416;2022-09-09T13:00:05;2.92;;;1.27;;
19879;SDS011;10102;50.828;4.416;2022-09-09T13:02:51;4.68;;;0.95;;
19879;SDS011;10102;50.828;4.416;2022-09-09T13:05:23;4.53;;;1.35;;
19879;SDS011;10102;50.828;4.416;2022-09-09T13:07:50;6.93;;;1.40;;
19879;SDS011;10102;50.828;4.416;2022-09-09T13:10:21;3.40;;;1.30;;
19879;SDS011;10102;50.828;4.416;2022-09-09T13:12:54;7.05;;;1.65;;
19879;SDS011;10102;50.828;4.416;2022-09-09T13:15:22;5.32;;;1.48;;
19879;SDS011;10102;50.828;4.416;2022-09-09T13:17:53;3.72;;;1.20;;
19879;SDS011;10102;50.828;4.416;2022-09-09T13:20:23;4.57;;;1.30;;
19879;SDS011;10102;50.828;4.416;2022-09-09T13:22:50;3.85;;;1.20;;
19879;SDS011;10102;50.828;4.416;2022-09-09T13:25:20;4.05;;;1.58;;
19879;SDS011;10102;50.828;4.416;2022-09-09T13:28:05;3.70;;;1.33;;
19879;SDS011;10102;50.828;4.416;2022-09-09T13:30:54;4.32;;;1.30;;
19879;SDS011;10102;50.828;4.416;2022-09-09T13:33:44;5.75;;;1.33;;
19879;SDS011;10102;50.828;4.416;2022-09-09T13:36:10;3.25;;;1.20;;
19879;SDS011;10102;50.828;4.416;2022-09-09T13:38:38;5.30;;;1.23;;
19879;SDS011;10102;50.828;4.416;2022-09-09T13:41:31;5.03;;;1.45;;
19879;SDS011;10102;50.828;4.416;2022-09-09T13:44:02;4.85;;;1.40;;
19879;SDS011;10102;50.828;4.416;2022-09-09T13:46:38;2.85;;;1.02;;
19879;SDS011;10102;50.828;4.416;2022-09-09T13:51:42;10.10;;;1.42;;
19879;SDS011;10102;50.828;4.416;2022-09-09T13:54:16;5.32;;;1.23;;
19879;SDS011;10102;50.828;4.416;2022-09-09T13:56:46;3.15;;;0.95;;
19879;SDS011;10102;50.828;4.416;2022-09-09T13:59:12;4.43;;;1.70;;
19879;SDS011;10102;50.828;4.416;2022-09-09T14:01:40;4.03;;;1.10;;
19879;SDS011;10102;50.828;4.416;2022-09-09T14:04:06;4.93;;;1.50;;
19879;SDS011;10102;50.828;4.416;2022-09-09T14:06:33;2.38;;;1.40;;
19879;SDS011;10102;50.828;4.416;2022-09-09T14:09:02;5.45;;;1.33;;
19879;SDS011;10102;50.828;4.416;2022-09-09T14:11:29;6.25;;;1.30;;
19879;SDS011;10102;50.828;4.416;2022-09-09T14:13:55;5.30;;;1.35;;
19879;SDS011;10102;50.828;4.416;2022-09-09T14:16:21;4.22;;;1.27;;
19879;SDS011;10102;50.828;4.416;2022-09-09T14:18:46;5.53;;;1.45;;
19879;SDS011;10102;50.828;4.416;2022-09-09T14:21:12;5.47;;;1.50;;
19879;SDS011;10102;50.828;4.416;2022-09-09T14:23:40;4.70;;;1.73;;
19879;SDS011;10102;50.828;4.416;2022-09-09T14:26:06;5.35;;;1.50;;
19879;SDS011;10102;50.828;4.416;2022-09-09T14:28:34;4.07;;;1.35;;
19879;SDS011;10102;50.828;4.416;2022-09-09T14:31:02;4.20;;;1.40;;
19879;SDS011;10102;50.828;4.416;2022-09-09T14:33:30;4.47;;;1.55;;
19879;SDS011;10102;50.828;4.416;2022-09-09T14:35:56;7.25;;;1.52;;
19879;SDS011;10102;50.828;4.416;2022-09-09T14:38:24;3.40;;;1.48;;
19879;SDS011;10102;50.828;4.416;2022-09-09T14:40:50;6.28;;;1.77;;
19879;SDS011;10102;50.828;4.416;2022-09-09T14:43:15;7.75;;;1.80;;
19879;SDS011;10102;50.828;4.416;2022-09-09T14:45:41;5.05;;;1.70;;
19879;SDS011;10102;50.828;4.416;2022-09-09T14:48:09;5.75;;;1.85;;
19879;SDS011;10102;50.828;4.416;2022-09-09T14:50:35;10.70;;;1.83;;
19879;SDS011;10102;50.828;4.416;2022-09-09T14:53:04;3.92;;;1.77;;
19879;SDS011;10102;50.828;4.416;2022-09-09T14:55:30;7.13;;;1.40;;
19879;SDS011;10102;50.828;4.416;2022-09-09T14:57:57;3.83;;;1.15;;
19879;SDS011;10102;50.828;4.416;2022-09-09T15:00:23;7.53;;;1.40;;
19879;SDS011;10102;50.828;4.416;2022-09-09T15:02:51;4.10;;;1.38;;
19879;SDS011;10102;50.828;4.416;2022-09-09T15:05:18;4.15;;;1.20;;
19879;SDS011;10102;50.828;4.416;2022-09-09T15:07:45;5.20;;;1.38;;
19879;SDS011;10102;50.828;4.416;2022-09-09T15:10:12;6.22;;;1.17;;
19879;SDS011;10102;50.828;4.416;2022-09-09T15:12:37;4.95;;;1.30;;
19879;SDS011;10102;50.828;4.416;2022-09-09T15:15:03;3.45;;;1.20;;
19879;SDS011;10102;50.828;4.416;2022-09-09T15:17:30;3.15;;;1.33;;
19879;SDS011;10102;50.828;4.416;2022-09-09T15:19:56;5.60;;;1.23;;
19879;SDS011;10102;50.828;4.416;2022-09-09T15:22:23;4.47;;;1.30;;
19879;SDS011;10102;50.828;4.416;2022-09-09T15:24:51;3.88;;;1.10;;
19879;SDS011;10102;50.828;4.416;2022-09-09T15:27:20;12.18;;;1.90;;
19879;SDS011;10102;50.828;4.416;2022-09-09T15:29:49;4.90;;;1.50;;
19879;SDS011;10102;50.828;4.416;2022-09-09T15:32:16;6.65;;;1.30;;
19879;SDS011;10102;50.828;4.416;2022-09-09T15:34:42;5.45;;;1.45;;
19879;SDS011;10102;50.828;4.416;2022-09-09T15:37:09;6.90;;;1.40;;
19879;SDS011;10102;50.828;4.416;2022-09-09T15:39:38;3.92;;;1.20;;
19879;SDS011;10102;50.828;4.416;2022-09-09T15:42:05;5.18;;;1.00;;
19879;SDS011;10102;50.828;4.416;2022-09-09T15:44:41;4.43;;;1.55;;
19879;SDS011;10102;50.828;4.416;2022-09-09T15:47:07;9.15;;;1.77;;
19879;SDS011;10102;50.828;4.416;2022-09-09T15:49:35;3.50;;;1.35;;
19879;SDS011;10102;50.828;4.416;2022-09-09T15:52:02;4.82;;;1.30;;
19879;SDS011;10102;50.828;4.416;2022-09-09T15:54:30;4.18;;;1.13;;
19879;SDS011;10102;50.828;4.416;2022-09-09T15:56:59;4.80;;;1.63;;
19879;SDS011;10102;50.828;4.416;2022-09-09T15:59:27;3.28;;;1.20;;
19879;SDS011;10102;50.828;4.416;2022-09-09T16:01:54;3.47;;;1.17;;
19879;SDS011;10102;50.828;4.416;2022-09-09T16:04:21;6.85;;;1.42;;
19879;SDS011;10102;50.828;4.416;2022-09-09T16:06:51;4.85;;;1.38;;
19879;SDS011;10102;50.828;4.416;2022-09-09T16:09:19;6.55;;;1.38;;
19879;SDS011;10102;50.828;4.416;2022-09-09T16:11:46;4.45;;;1.27;;
19879;SDS011;10102;50.828;4.416;2022-09-09T16:14:12;6.28;;;1.63;;
19879;SDS011;10102;50.828;4.416;2022-09-09T16:16:40;5.20;;;1.90;;
19879;SDS011;10102;50.828;4.416;2022-09-09T16:19:09;2.15;;;1.05;;
19879;SDS011;10102;50.828;4.416;2022-09-09T16:21:38;11.85;;;1.73;;
19879;SDS011;10102;50.828;4.416;2022-09-09T16:24:07;5.20;;;1.90;;
19879;SDS011;10102;50.828;4.416;2022-09-09T16:26:34;8.65;;;1.90;;
19879;SDS011;10102;50.828;4.416;2022-09-09T16:29:01;50.80;;;3.22;;
19879;SDS011;10102;50.828;4.416;2022-09-09T16:31:28;11.98;;;2.47;;
19879;SDS011;10102;50.828;4.416;2022-09-09T16:33:56;11.07;;;2.45;;
19879;SDS011;10102;50.828;4.416;2022-09-09T16:36:27;8.15;;;2.20;;
19879;SDS011;10102;50.828;4.416;2022-09-09T16:38:55;7.47;;;2.47;;
19879;SDS011;10102;50.828;4.416;2022-09-09T16:41:26;7.05;;;2.75;;
19879;SDS011;10102;50.828;4.416;2022-09-09T16:43:55;8.80;;;2.90;;
19879;SDS011;10102;50.828;4.416;2022-09-09T16:46:29;5.50;;;3.03;;
19879;SDS011;10102;50.828;4.416;2022-09-09T16:48:57;9.00;;;3.10;;
19879;SDS011;10102;50.828;4.416;2022-09-09T16:51:26;6.47;;;2.33;;
19879;SDS011;10102;50.828;4.416;2022-09-09T16:53:57;7.93;;;3.03;;
19879;SDS011;10102;50.828;4.416;2022-09-09T16:56:26;6.60;;;2.38;;
19879;SDS011;10102;50.828;4.416;2022-09-09T16:58:58;6.75;;;3.05;;
19879;SDS011;10102;50.828;4.416;2022-09-09T17:01:27;4.88;;;2.25;;
19879;SDS011;10102;50.828;4.416;2022-09-09T17:03:57;3.95;;;2.35;;
19879;SDS011;10102;50.828;4.416;2022-09-09T17:06:27;3.67;;;2.03;;